Time;durP1;ratioP1;P1;durP2;ratioP2;P2;SDS_P1;SDS_P2;PMS_P1;PMS_P2;Temp;Humidity;BMP_temperature;BMP_pressure;BME280_temperature;BME280_humidity;BME280_pressure;Samples;Min_cycle;Max_cycle;Signal;HPM_P1;HPM_P2
2021/09/15 00:00:15;;;;;;;;;0.00;0.00;;;;;22.42;71.00;100669.03;5083745;27;45521;-84
2021/09/15 00:03:36;;;;;;;;;;;;;;;;;;;;;
2021/09/15 00:06:23;;;;;;;;;0.00;0.00;;;;;22.05;70.70;100623.69;5103542;27;62332;-83
2021/09/15 00:08:49;;;;;;;;;0.00;0.00;;;;;22.31;70.18;100639.41;5106253;27;46223;-84
2021/09/15 00:11:19;;;;;;;;;1.00;0.00;;;;;21.59;70.63;100520.47;5089744;27;45296;-85
2021/09/15 00:13:50;;;;;;;;;0.00;0.00;;;;;22.58;70.58;100679.00;5105183;27;45466;-85
2021/09/15 00:16:21;;;;;;;;;0.50;0.50;;;;;21.55;69.35;100498.53;5122440;27;45387;-84
2021/09/15 00:19:01;;;;;;;;;0.00;0.00;;;;;21.44;69.09;100484.88;5084890;27;47766;-85
2021/09/15 00:21:37;;;;;;;;;0.00;0.00;;;;;21.88;69.18;100558.16;5107467;27;45447;-86
2021/09/15 00:24:17;;;;;;;;;0.00;0.00;;;;;21.60;69.43;100503.66;5104186;27;45405;-86
2021/09/15 00:26:50;;;;;;;;;0.00;0.00;;;;;21.89;69.05;100560.72;5088106;27;45539;-85
2021/09/15 00:29:23;;;;;;;;;0.00;0.00;;;;;21.70;69.20;100517.34;5102967;27;46840;-84
2021/09/15 00:31:48;;;;;;;;;0.00;0.00;;;;;22.66;69.89;100671.53;5088988;27;45470;-85
2021/09/15 00:34:20;;;;;;;;;0.00;0.00;;;;;21.69;69.36;100513.88;5088650;27;45361;-84
2021/09/15 00:36:55;;;;;;;;;0.00;0.00;;;;;22.69;69.16;100686.50;5104579;27;45338;-85
2021/09/15 00:39:26;;;;;;;;;0.00;0.00;;;;;22.20;69.68;100593.03;5084340;27;47755;-84
2021/09/15 00:42:01;;;;;;;;;0.00;0.00;;;;;21.96;69.39;100553.38;5087950;27;45926;-84
2021/09/15 00:44:34;;;;;;;;;0.00;0.00;;;;;21.49;68.82;100478.47;5103732;27;45236;-84
2021/09/15 00:46:59;;;;;;;;;0.00;0.00;;;;;21.85;68.66;100537.94;5100381;27;45625;-85
2021/09/15 00:49:25;;;;;;;;;0.00;0.00;;;;;22.20;68.68;100595.66;5068378;27;47176;-84
2021/09/15 00:51:50;;;;;;;;;0.00;0.00;;;;;22.22;68.39;100604.44;5103301;27;45312;-84
2021/09/15 00:54:31;;;;;;;;;0.00;0.00;;;;;22.08;68.76;100572.34;5087806;27;45493;-84
2021/09/15 00:57:01;;;;;;;;;0.00;0.00;;;;;21.40;68.58;100476.19;5085283;27;45461;-85
2021/09/15 00:59:27;;;;;;;;;0.00;0.00;;;;;22.49;68.44;100672.25;5102687;27;45517;-85
2021/09/15 01:01:56;;;;;;;;;0.00;0.00;;;;;21.46;68.77;100513.00;5090744;27;45442;-83
2021/09/15 01:04:30;;;;;;;;;0.00;0.00;;;;;21.64;68.60;100542.31;5105798;27;45459;-84
2021/09/15 01:07:06;;;;;;;;;0.00;0.00;;;;;21.24;68.24;100483.91;5106015;27;45474;-83
2021/09/15 01:09:41;;;;;;;;;0.00;0.00;;;;;22.35;68.49;100667.53;5139735;27;45485;-83
2021/09/15 01:12:24;;;;;;;;;0.00;0.00;;;;;21.69;68.94;100573.91;5086979;27;45616;-83
2021/09/15 01:15:17;;;;;;;;;0.00;0.00;;;;;21.83;68.64;100584.81;5101276;27;45272;-84
2021/09/15 01:17:52;;;;;;;;;0.00;0.00;;;;;21.42;68.83;100523.78;5080949;27;45527;-85
2021/09/15 01:20:21;;;;;;;;;0.00;0.00;;;;;21.83;68.96;100590.13;5088601;27;46517;-83
2021/09/15 01:22:46;;;;;;;;;0.00;0.00;;;;;21.77;68.87;100590.38;5085334;27;45434;-83
2021/09/15 01:25:20;;;;;;;;;0.00;0.00;;;;;21.83;69.17;100589.25;5084409;27;45400;-85
2021/09/15 01:27:47;;;;;;;;;0.00;0.00;;;;;21.51;69.04;100539.31;5089657;27;45288;-85
2021/09/15 01:30:21;;;;;;;;;0.25;0.00;;;;;21.35;68.70;100500.19;5084999;27;45648;-86
2021/09/15 01:33:03;;;;;;;;;0.00;0.00;;;;;21.60;69.13;100531.00;5084614;27;45468;-86
2021/09/15 01:35:52;;;;;;;;;0.00;0.00;;;;;21.20;68.59;100464.66;5106097;27;45421;-86
2021/09/15 01:38:19;;;;;;;;;0.25;0.00;;;;;21.71;68.69;100551.72;5100326;27;45557;-84
2021/09/15 01:40:57;;;;;;;;;0.00;0.00;;;;;21.34;68.98;100498.50;5143371;27;47110;-86
2021/09/15 01:43:30;;;;;;;;;0.00;0.00;;;;;21.61;68.73;100542.44;5104755;27;45526;-86
2021/09/15 01:45:58;;;;;;;;;0.00;0.00;;;;;21.59;68.67;100541.66;5139550;27;45285;-86
2021/09/15 01:48:27;;;;;;;;;0.00;0.00;;;;;21.58;69.07;100542.56;5128256;27;45253;-86
2021/09/15 01:50:57;;;;;;;;;0.00;0.00;;;;;21.56;68.63;100545.25;5087840;27;47216;-86
2021/09/15 01:53:23;;;;;;;;;0.00;0.00;;;;;20.92;68.88;100431.34;5092386;27;45290;-87
2021/09/15 01:56:09;;;;;;;;;0.00;0.00;;;;;21.82;69.27;100584.88;5103525;27;45292;-86
2021/09/15 01:58:36;;;;;;;;;0.00;0.00;;;;;21.49;69.32;100541.16;5084739;27;45515;-85
2021/09/15 02:01:11;;;;;;;;;0.00;0.00;;;;;21.62;69.03;100576.81;5105136;27;46261;-85
2021/09/15 02:03:37;;;;;;;;;0.00;0.00;;;;;21.39;69.25;100532.72;5083892;27;45428;-84
2021/09/15 02:06:13;;;;;;;;;0.00;0.00;;;;;21.41;69.67;100540.59;5084034;27;45441;-83
2021/09/15 02:08:39;;;;;;;;;0.00;0.00;;;;;21.56;69.08;100566.44;5084966;27;45624;-86
2021/09/15 02:11:07;;;;;;;;;0.00;0.00;;;;;21.40;68.89;100550.31;5097942;27;47056;-85
2021/09/15 02:13:36;;;;;;;;;0.00;0.00;;;;;21.08;69.60;100516.28;5106127;27;45276;-85
2021/09/15 02:16:02;;;;;;;;;0.00;0.00;;;;;21.11;69.26;100507.34;5106326;27;45427;-84
2021/09/15 02:18:35;;;;;;;;;0.00;0.00;;;;;21.22;69.56;100522.81;5081439;27;45634;-86
2021/09/15 02:21:01;;;;;;;;;3.75;0.75;;;;;21.39;69.99;100551.25;5087907;27;47179;-83
2021/09/15 02:23:34;;;;;;;;;0.00;0.00;;;;;21.84;69.28;100626.28;5079369;28;45466;-84
2021/09/15 02:26:02;;;;;;;;;0.00;0.00;;;;;22.08;69.77;100668.59;5118304;27;45255;-86
2021/09/15 02:28:31;;;;;;;;;0.00;0.00;;;;;20.74;69.51;100439.03;5104110;27;45583;-85
2021/09/15 02:31:18;;;;;;;;;0.00;0.00;;;;;22.12;69.51;100664.94;5103717;27;46332;-86
2021/09/15 02:33:50;;;;;;;;;0.00;0.00;;;;;21.42;70.05;100539.66;5106942;27;44702;-86
2021/09/15 02:36:16;;;;;;;;;0.00;0.00;;;;;21.76;69.38;100591.31;5104904;27;45463;-85
2021/09/15 02:38:48;;;;;;;;;0.00;0.00;;;;;22.14;69.35;100660.41;5088305;27;45303;-85
2021/09/15 02:41:51;;;;;;;;;0.00;0.00;;;;;21.39;69.10;100540.66;5088568;27;46966;-86
2021/09/15 02:44:27;;;;;;;;;0.00;0.00;;;;;21.90;70.09;100619.91;5111284;27;45538;-85
2021/09/15 02:46:55;;;;;;;;;0.00;0.00;;;;;20.74;69.24;100438.19;5112046;27;45347;-86
2021/09/15 02:49:28;;;;;;;;;0.00;0.00;;;;;21.77;69.97;100615.09;5126781;27;45387;-86
2021/09/15 02:51:56;;;;;;;;;0.00;0.00;;;;;22.20;70.29;100679.66;5089178;27;45769;-86
2021/09/15 02:54:24;;;;;;;;;0.00;0.00;;;;;21.80;69.95;100613.25;5078969;27;45568;-87
2021/09/15 02:56:50;;;;;;;;;0.00;0.00;;;;;21.52;71.11;100567.50;5066994;28;45296;-86
2021/09/15 02:59:16;;;;;;;;;0.00;0.00;;;;;21.51;70.70;100563.13;5065378;28;45330;-84
2021/09/15 03:01:48;;;;;;;;;0.00;0.00;;;;;21.44;70.63;100554.56;5074049;28;46701;-86
2021/09/15 03:04:24;;;;;;;;;;;;;;;;;;;;;
2021/09/15 03:06:52;;;;;;;;;0.00;0.00;;;;;21.50;71.29;100549.03;5085256;28;68740;-86
2021/09/15 03:09:31;;;;;;;;;0.00;0.00;;;;;21.47;70.21;100554.44;5066995;28;45459;-85
2021/09/15 03:11:59;;;;;;;;;0.00;0.00;;;;;21.98;70.53;100631.03;5069776;28;46915;-86
2021/09/15 03:14:27;;;;;;;;;0.00;0.00;;;;;21.47;70.31;100545.66;5066236;28;45251;-86
2021/09/15 03:16:58;;;;;;;;;0.00;0.00;;;;;21.47;70.73;100549.16;5085557;28;45431;-86
2021/09/15 03:19:23;;;;;;;;;0.00;0.00;;;;;21.13;70.88;100492.25;5083645;28;45414;-87
2021/09/15 03:21:52;;;;;;;;;0.00;0.00;;;;;21.43;70.53;100550.19;5083229;28;47302;-86
2021/09/15 03:24:19;;;;;;;;;0.00;0.00;;;;;21.71;70.59;100607.34;5106000;27;45452;-87
2021/09/15 03:27:07;;;;;;;;;0.00;0.00;;;;;21.36;70.83;100546.09;5067191;28;45579;-85
2021/09/15 03:29:40;;;;;;;;;0.00;0.00;;;;;21.34;70.76;100539.97;5066016;28;45197;-86
2021/09/15 03:32:31;;;;;;;;;0.00;0.00;;;;;21.40;70.99;100547.66;5064868;28;45665;-84
2021/09/15 03:35:06;;;;;;;;;0.00;0.00;;;;;21.01;71.22;100483.88;5067307;27;45517;-85
2021/09/15 03:37:39;;;;;;;;;0.00;0.00;;;;;21.27;71.17;100537.59;5069013;28;45459;-84
2021/09/15 03:40:09;;;;;;;;;0.00;0.00;;;;;21.06;71.07;100514.59;5066007;28;45247;-84
2021/09/15 03:42:54;;;;;;;;;0.00;0.00;;;;;22.05;71.66;100662.59;5064668;28;45573;-84
2021/09/15 03:45:20;;;;;;;;;0.00;0.00;;;;;22.02;71.41;100667.06;5066091;28;45553;-85
2021/09/15 03:51:08;;;;;;;;;0.00;0.00;;;;;20.83;70.94;100466.91;5071840;28;45544;-85
2021/09/15 03:53:52;;;;;;;;;0.00;0.00;;;;;22.13;71.77;100689.63;5079298;27;45423;-86
2021/09/15 03:56:31;;;;;;;;;0.00;0.00;;;;;21.19;71.92;100520.28;5064461;28;45416;-85
2021/09/15 03:59:14;;;;;;;;;0.00;0.00;;;;;21.07;71.50;100496.00;5066241;28;45423;-85
2021/09/15 04:05:22;;;;;;;;;0.25;0.00;;;;;21.07;71.12;100511.06;5053260;28;45823;-86
2021/09/15 04:08:02;;;;;;;;;0.00;0.00;;;;;21.40;70.97;100566.22;5063809;28;45544;-84
2021/09/15 04:10:28;;;;;;;;;0.00;0.00;;;;;21.35;71.55;100576.13;5083798;27;45315;-83
2021/09/15 04:13:10;;;;;;;;;0.00;0.00;;;;;21.04;71.57;100527.03;5082470;28;45184;-87
2021/09/15 04:15:36;;;;;;;;;1.00;0.00;;;;;21.17;70.80;100538.88;5077426;28;46314;-86
2021/09/15 04:18:12;;;;;;;;;0.75;0.75;;;;;20.73;70.81;100473.47;5062501;28;45480;-85
2021/09/15 04:20:38;;;;;;;;;0.00;0.00;;;;;22.09;71.03;100685.38;5061165;28;45508;-86
2021/09/15 04:23:41;;;;;;;;;;;;;;;;;;;;;
2021/09/15 04:32:01;;;;;;;;;0.00;0.00;;;;;21.42;70.82;100561.72;5080580;28;45354;-88
2021/09/15 04:34:27;;;;;;;;;0.00;0.00;;;;;21.43;71.13;100566.09;5064032;28;45626;-88
2021/09/15 04:37:57;;;;;;;;;;;;;;;;;;;;;
2021/09/15 04:40:30;;;;;;;;;1.00;0.00;;;;;21.34;70.61;100566.44;5079276;28;73676;-84
2021/09/15 04:42:56;;;;;;;;;0.50;0.00;;;;;21.35;71.21;100570.84;5064962;27;45648;-86
2021/09/15 04:49:13;;;;;;;;;0.00;0.00;;;;;21.51;71.11;100585.19;5077522;28;45497;-86
2021/09/15 04:51:42;;;;;;;;;0.00;0.00;;;;;21.57;71.37;100599.09;5041970;28;45474;-84
2021/09/15 04:54:10;;;;;;;;;0.00;0.00;;;;;21.56;70.89;100585.00;5065808;27;45790;-85
2021/09/15 05:00:17;;;;;;;;;0.00;0.00;;;;;22.17;71.42;100687.72;5087351;27;46160;-85
2021/09/15 05:03:01;;;;;;;;;1.00;0.00;;;;;21.29;70.99;100552.53;5014592;27;45387;-84
2021/09/15 05:05:42;;;;;;;;;0.00;0.00;;;;;22.17;71.10;100688.56;5083227;27;45316;-83
2021/09/15 05:08:22;;;;;;;;;0.00;0.00;;;;;21.71;70.85;100625.06;5084197;27;45553;-83
2021/09/15 05:11:06;;;;;;;;;;;;;;;;;;;;;
2021/09/15 05:13:41;;;;;;;;;0.00;0.00;;;;;21.61;70.86;100600.69;5101103;27;72041;-83
2021/09/15 05:16:12;;;;;;;;;0.00;0.00;;;;;21.35;70.93;100581.44;5084295;27;45380;-83
2021/09/15 05:18:52;;;;;;;;;0.00;0.00;;;;;21.16;70.11;100537.13;5099671;27;45488;-84
2021/09/15 05:21:52;;;;;;;;;0.00;0.00;;;;;21.87;70.11;100659.75;5101355;27;45370;-84
2021/09/15 05:24:28;;;;;;;;;0.00;0.00;;;;;22.06;70.04;100691.69;5084184;27;45422;-84
2021/09/15 05:27:04;;;;;;;;;0.00;0.00;;;;;21.04;70.28;100541.13;5083706;27;45419;-84
2021/09/15 05:29:30;;;;;;;;;0.00;0.00;;;;;21.54;70.46;100613.34;5084893;27;45358;-84
2021/09/15 05:32:13;;;;;;;;;0.00;0.00;;;;;21.54;70.26;100623.94;5101696;27;45461;-84
2021/09/15 05:35:05;;;;;;;;;0.00;0.00;;;;;21.97;71.05;100700.88;5083144;27;45469;-85
2021/09/15 05:37:57;;;;;;;;;0.00;0.00;;;;;20.99;70.46;100557.19;5066118;28;45305;-85
2021/09/15 05:40:25;;;;;;;;;0.00;0.00;;;;;21.30;70.94;100588.66;5099231;27;45334;-87
2021/09/15 05:43:11;;;;;;;;;0.00;0.00;;;;;21.84;70.62;100684.56;5081631;27;46971;-85
2021/09/15 05:45:42;;;;;;;;;1.00;1.00;;;;;20.71;70.85;100499.13;5087947;27;45371;-89
2021/09/15 05:48:32;;;;;;;;;0.00;0.00;;;;;20.86;70.16;100525.00;5084508;27;45474;-89
2021/09/15 05:51:05;;;;;;;;;0.75;0.75;;;;;21.90;71.09;100700.22;5086364;27;45334;-86
2021/09/15 05:53:41;;;;;;;;;0.00;0.00;;;;;21.86;71.39;100708.34;5084438;27;45547;-88
2021/09/15 05:59:35;;;;;;;;;0.00;0.00;;;;;20.51;70.70;100506.03;5096455;27;44830;-88
2021/09/15 06:02:00;;;;;;;;;0.00;0.00;;;;;21.10;71.40;100606.19;5074605;27;45408;-88
2021/09/15 06:04:31;;;;;;;;;0.00;0.00;;;;;21.36;71.55;100670.50;5079368;27;46994;-88
2021/09/15 06:07:06;;;;;;;;;1.00;0.00;;;;;21.16;71.59;100616.53;5080412;27;45436;-88
2021/09/15 06:09:37;;;;;;;;;0.00;0.00;;;;;20.99;71.41;100591.59;5077577;27;45352;-88
2021/09/15 06:12:09;;;;;;;;;0.00;0.00;;;;;21.09;71.05;100601.81;5079790;28;45398;-89
2021/09/15 06:14:48;;;;;;;;;0.00;0.00;;;;;21.33;71.22;100641.50;5073269;27;48307;-88
2021/09/15 06:17:39;;;;;;;;;0.00;0.00;;;;;20.77;71.26;100549.16;5070937;27;45475;-85
2021/09/15 06:20:20;;;;;;;;;0.00;0.00;;;;;20.59;70.94;100506.63;5065777;28;45332;-85
2021/09/15 06:23:10;;;;;;;;;0.00;0.00;;;;;21.34;71.11;100624.69;5066498;28;45610;-89
2021/09/15 06:26:00;;;;;;;;;0.00;0.00;;;;;21.60;71.45;100692.56;5068929;28;45705;-86
2021/09/15 06:28:29;;;;;;;;;0.00;0.00;;;;;21.17;71.50;100620.91;5065837;28;45419;-82
2021/09/15 06:31:01;;;;;;;;;0.00;0.00;;;;;20.73;71.61;100536.94;5067220;28;45542;-84
2021/09/15 06:33:38;;;;;;;;;0.25;0.00;;;;;21.17;70.83;100625.34;5087248;27;45453;-88
2021/09/15 06:36:15;;;;;;;;;0.00;0.00;;;;;21.22;71.62;100634.81;5074963;27;46727;-85
2021/09/15 06:38:50;;;;;;;;;0.75;0.50;;;;;20.98;71.54;100571.31;5099017;27;45504;-83
2021/09/15 06:41:37;;;;;;;;;0.00;0.00;;;;;21.97;71.71;100739.75;5095148;27;45531;-85
2021/09/15 06:44:14;;;;;;;;;0.75;0.00;;;;;22.01;71.20;100759.91;5083828;28;45767;-85
2021/09/15 06:46:51;;;;;;;;;0.00;0.00;;;;;22.05;71.73;100742.09;5083530;28;46760;-88
2021/09/15 06:49:25;;;;;;;;;0.00;0.00;;;;;21.47;71.27;100641.81;5092571;27;45523;-83
2021/09/15 06:51:59;;;;;;;;;0.00;0.00;;;;;21.35;71.53;100629.91;5074039;28;45367;-85
2021/09/15 06:54:37;;;;;;;;;0.00;0.00;;;;;21.37;71.35;100628.09;5096310;27;45378;-84
2021/09/15 06:57:03;;;;;;;;;0.00;0.00;;;;;21.08;71.06;100586.84;5071265;27;46301;-80
2021/09/15 06:59:37;;;;;;;;;0.00;0.00;;;;;21.47;71.65;100660.34;5084475;27;45409;-82
2021/09/15 07:02:29;;;;;;;;;0.00;0.00;;;;;21.04;71.04;100594.03;5075067;28;45403;-83
2021/09/15 07:05:36;;;;;;;;;0.00;0.00;;;;;21.13;71.93;100606.94;5083986;28;45373;-80
2021/09/15 07:08:05;;;;;;;;;0.00;0.00;;;;;21.93;71.91;100746.94;5091822;27;45411;-80
2021/09/15 07:10:41;;;;;;;;;0.00;0.00;;;;;21.37;71.82;100659.84;5083676;27;45304;-78
2021/09/15 07:13:08;;;;;;;;;1.00;1.00;;;;;20.93;71.87;100594.47;5064903;28;45483;-79
2021/09/15 07:15:47;;;;;;;;;0.75;0.75;;;;;20.85;72.35;100580.59;5083055;27;45272;-82
2021/09/15 07:18:16;;;;;;;;;2.00;0.00;;;;;21.01;71.70;100613.53;5067925;28;47170;-80
2021/09/15 07:20:58;;;;;;;;;0.00;0.00;;;;;21.07;72.24;100603.66;5086918;27;45324;-80
2021/09/15 07:23:25;;;;;;;;;0.00;0.00;;;;;21.36;72.42;100663.44;5061844;27;45544;-79
2021/09/15 07:25:50;;;;;;;;;0.00;0.00;;;;;21.33;71.98;100652.09;5085356;27;45283;-80
2021/09/15 07:28:16;;;;;;;;;1.25;0.00;;;;;22.08;71.78;100776.44;5082216;27;45505;-77
2021/09/15 07:30:41;;;;;;;;;0.00;0.00;;;;;21.91;71.72;100746.16;5072012;27;45347;-77
2021/09/15 07:33:07;;;;;;;;;1.00;1.00;;;;;21.95;71.86;100761.00;5085858;27;45254;-80
2021/09/15 07:35:32;;;;;;;;;3.00;0.00;;;;;22.10;71.62;100785.16;5087935;27;45264;-80
2021/09/15 07:37:58;;;;;;;;;0.00;0.00;;;;;22.08;71.92;100784.38;5086585;28;45366;-81
2021/09/15 07:40:23;;;;;;;;;0.00;0.00;;;;;22.07;71.78;100787.94;5088222;27;45400;-79
2021/09/15 07:42:51;;;;;;;;;0.00;0.00;;;;;21.94;72.33;100764.59;5068873;27;45486;-80
2021/09/15 07:45:19;;;;;;;;;0.50;0.50;;;;;21.84;71.77;100753.47;5087255;27;45509;-80
2021/09/15 07:47:50;;;;;;;;;1.00;0.00;;;;;21.31;72.26;100662.72;5083457;27;46479;-81
2021/09/15 07:50:15;;;;;;;;;0.25;0.00;;;;;21.27;72.28;100650.53;5066447;27;45509;-80
2021/09/15 07:52:41;;;;;;;;;0.00;0.00;;;;;21.31;72.11;100659.25;5064525;28;45533;-81
2021/09/15 07:55:09;;;;;;;;;1.00;1.00;;;;;21.56;72.49;100696.22;5071416;27;45316;-80
2021/09/15 07:57:35;;;;;;;;;0.00;0.00;;;;;21.52;71.77;100687.53;5091230;27;47027;-84
2021/09/15 08:01:16;;;;;;;;;0.00;0.00;;;;;20.95;72.21;100594.41;5095757;27;45466;-84
2021/09/15 08:07:24;;;;;;;;;0.00;0.00;;;;;22.11;71.36;100782.47;5063819;28;45541;-80
2021/09/15 08:10:18;;;;;;;;;0.00;0.00;;;;;21.59;71.71;100704.03;5046604;28;48025;-82
2021/09/15 08:13:23;;;;;;;;;0.00;0.00;;;;;21.35;72.10;100679.38;5078566;27;45454;-81
2021/09/15 08:16:44;;;;;;;;;;;;;;;;;;;;;
2021/09/15 08:19:10;;;;;;;;;0.00;0.00;;;;;21.68;71.82;100721.38;5063015;28;63191;-85
2021/09/15 08:22:07;;;;;;;;;0.00;0.00;;;;;20.97;71.99;100592.53;5049833;28;45663;-85
2021/09/15 08:24:33;;;;;;;;;0.50;0.50;;;;;21.20;71.78;100615.50;5066621;28;45456;-87
2021/09/15 08:27:22;;;;;;;;;0.00;0.00;;;;;21.89;71.68;100724.13;5047486;28;45455;-83
2021/09/15 08:29:57;;;;;;;;;0.00;0.00;;;;;;;;5080097;27;45490;-83
2021/09/15 08:32:29;;;;;;;;;0.00;0.00;;;;;21.49;71.79;100641.75;5086227;27;45552;-83
2021/09/15 08:35:00;;;;;;;;;2.00;1.00;;;;;21.71;71.60;100670.94;5105438;27;45463;-82
2021/09/15 08:38:03;;;;;;;;;0.00;0.00;;;;;21.19;71.18;100592.59;5085626;27;45323;-83
2021/09/15 08:44:33;;;;;;;;;0.50;0.50;;;;;20.95;71.50;100579.38;5067394;28;46069;-82
2021/09/15 08:47:43;;;;;;;;;1.75;0.00;;;;;22.26;71.70;100815.47;5112652;27;45357;-84
2021/09/15 08:50:44;;;;;;;;;;;;;;;;;;;;;
2021/09/15 08:53:11;;;;;;;;;0.25;0.25;;;;;21.09;71.85;100660.91;5098153;27;45633;-81
2021/09/15 08:55:46;;;;;;;;;0.00;0.00;;;;;21.10;72.40;100688.22;5079534;27;47098;-81
2021/09/15 08:58:38;;;;;;;;;0.75;0.75;;;;;21.46;72.52;100755.75;5116032;27;45552;-81
2021/09/15 09:01:25;;;;;;;;;0.75;0.75;;;;;21.35;73.21;100780.81;5085941;27;45484;-80
2021/09/15 09:04:12;;;;;;;;;;;;;;;;;;;;;
2021/09/15 09:06:57;;;;;;;;;0.00;0.00;;;;;20.60;74.27;100659.06;5102837;27;75211;-83
2021/09/15 09:09:30;;;;;;;;;0.00;0.00;;;;;21.00;74.15;100698.28;5079199;27;45727;-84
2021/09/15 09:15:33;;;;;;;;;0.00;0.00;;;;;21.74;74.67;100816.50;5103278;27;45287;-81
2021/09/15 09:18:32;;;;;;;;;0.00;0.00;;;;;21.44;74.49;100757.59;5080966;27;47172;-81
2021/09/15 09:21:43;;;;;;;;;1.00;1.00;;;;;20.49;74.42;100608.34;5081989;27;45334;-81
2021/09/15 09:27:36;;;;;;;;;0.00;0.00;;;;;20.64;74.65;100628.06;5079748;27;45725;-79
2021/09/15 09:30:01;;;;;;;;;0.00;0.00;;;;;20.54;74.12;100608.16;5098299;27;46068;-80
2021/09/15 09:32:30;;;;;;;;;0.00;0.00;;;;;20.53;74.79;100624.94;5081931;27;45478;-81
2021/09/15 09:35:06;;;;;;;;;0.00;0.00;;;;;21.23;74.48;100745.06;5082924;27;45512;-81
2021/09/15 09:38:52;;;;;;;;;0.00;0.00;;;;;21.55;74.54;100805.72;5075516;27;45396;-80
2021/09/15 09:41:57;;;;;;;;;0.00;0.00;;;;;21.58;74.87;100828.56;5086648;27;46117;-81
2021/09/15 09:44:27;;;;;;;;;0.00;0.00;;;;;20.73;75.62;100700.94;5035450;27;45497;-84
2021/09/15 09:47:42;;;;;;;;;0.00;0.00;;;;;21.12;75.45;100757.84;5086662;27;45441;-82
2021/09/15 09:56:40;;;;;;;;;0.00;0.00;;;;;20.91;75.47;100723.28;5083964;27;45594;-83
2021/09/15 09:59:32;;;;;;;;;0.75;0.00;;;;;20.21;75.32;100618.06;5078722;27;45369;-82
2021/09/15 10:02:34;;;;;;;;;0.00;0.00;;;;;20.46;75.35;100658.69;5062850;28;46126;-84
2021/09/15 10:05:27;;;;;;;;;0.00;0.00;;;;;20.74;75.86;100706.16;5054378;28;47159;-83
2021/09/15 10:08:01;;;;;;;;;1.00;1.00;;;;;20.75;75.37;100707.91;5089469;27;45631;-82
2021/09/15 10:10:26;;;;;;;;;0.25;0.00;;;;;20.68;75.64;100694.94;5062762;28;45209;-81
2021/09/15 10:13:17;;;;;;;;;0.00;0.00;;;;;21.47;75.75;100821.88;5060230;27;45558;-81
2021/09/15 10:16:16;;;;;;;;;0.00;0.00;;;;;20.22;75.82;100618.94;5063339;28;46790;-81
2021/09/15 10:19:00;;;;;;;;;0.00;0.00;;;;;21.42;75.76;100836.22;5059008;28;45559;-82
2021/09/15 10:21:36;;;;;;;;;0.00;0.00;;;;;21.39;76.25;100837.19;5080062;28;45299;-80
2021/09/15 10:24:38;;;;;;;;;1.00;0.00;;;;;21.44;76.32;100823.78;5063951;28;45554;-80
2021/09/15 10:27:06;;;;;;;;;0.00;0.00;;;;;20.41;76.14;100661.47;5061740;28;48412;-79
2021/09/15 10:29:32;;;;;;;;;4.00;0.00;;;;;21.63;76.54;100834.59;5079197;28;45474;-81
2021/09/15 10:32:30;;;;;;;;;0.50;0.50;;;;;20.87;75.37;100706.63;5062318;28;45589;-79
2021/09/15 10:34:55;;;;;;;;;1.00;1.00;;;;;20.93;75.89;100702.94;5060434;27;45580;-83
2021/09/15 10:37:21;;;;;;;;;4.25;1.75;;;;;21.39;74.87;100784.25;5079525;28;45449;-86
2021/09/15 10:40:08;;;;;;;;;0.75;0.75;;;;;21.49;75.80;100828.00;5065003;28;45002;-80
2021/09/15 10:42:46;;;;;;;;;1.00;1.00;;;;;21.44;75.80;100832.59;5076296;27;45426;-82
2021/09/15 10:45:25;;;;;;;;;0.00;0.00;;;;;19.90;75.98;100571.50;5082464;27;45492;-82
2021/09/15 10:48:14;;;;;;;;;0.00;0.00;;;;;20.38;75.53;100654.53;5066772;28;47898;-82
2021/09/15 10:50:42;;;;;;;;;1.25;1.25;;;;;21.15;75.73;100778.91;5065941;28;45481;-80
2021/09/15 10:53:18;;;;;;;;;0.00;0.00;;;;;21.29;75.22;100796.06;5092022;27;45512;-81
2021/09/15 10:55:57;;;;;;;;;0.75;0.00;;;;;20.08;75.39;100590.34;5077885;27;45603;-82
2021/09/15 10:58:44;;;;;;;;;0.00;0.00;;;;;21.76;75.02;100841.19;5088179;27;47182;-81
2021/09/15 11:01:13;;;;;;;;;2.00;0.00;;;;;21.05;74.81;100711.34;5083406;27;45735;-83
2021/09/15 11:03:54;;;;;;;;;0.00;0.00;;;;;21.30;73.58;100781.91;5087499;27;45377;-81
2021/09/15 11:06:23;;;;;;;;;0.00;0.00;;;;;20.62;73.84;100675.72;5103205;27;45611;-81
2021/09/15 11:08:53;;;;;;;;;0.00;0.00;;;;;21.19;74.15;100761.97;5102846;27;46370;-81
2021/09/15 11:11:21;;;;;;;;;0.00;0.00;;;;;21.82;74.32;100842.75;5084229;27;45680;-84
2021/09/15 11:13:59;;;;;;;;;0.00;0.00;;;;;20.86;73.65;100659.06;5103286;27;45532;-84
2021/09/15 11:16:26;;;;;;;;;0.00;0.00;;;;;22.10;73.80;100839.06;5102962;27;45420;-82
2021/09/15 11:19:09;;;;;;;;;1.00;0.00;;;;;22.39;73.20;100842.34;5108969;27;46415;-85
2021/09/15 11:21:56;;;;;;;;;1.00;1.00;;;;;21.93;72.54;100724.91;5080890;27;45448;-85
2021/09/15 11:24:44;;;;;;;;;0.00;0.00;;;;;22.83;72.31;100845.09;5085068;27;45538;-84
2021/09/15 11:27:24;;;;;;;;;0.00;0.00;;;;;22.67;71.98;100799.75;5087077;27;45551;-84
2021/09/15 11:29:53;;;;;;;;;0.00;0.00;;;;;21.96;71.06;100683.22;5104199;27;45472;-85
2021/09/15 11:32:26;;;;;;;;;0.00;0.00;;;;;22.29;71.26;100724.31;5078726;27;45340;-83
2021/09/15 11:34:54;;;;;;;;;1.00;0.00;;;;;22.91;70.32;100822.59;5102372;27;45607;-85
2021/09/15 11:37:28;;;;;;;;;1.00;0.00;;;;;22.60;70.53;100772.63;5086115;27;46302;-85
2021/09/15 11:40:08;;;;;;;;;0.00;0.00;;;;;22.44;70.21;100733.44;5106659;27;45803;-84
2021/09/15 11:42:40;;;;;;;;;0.00;0.00;;;;;21.91;69.29;100645.47;5120550;27;45370;-85
2021/09/15 11:45:23;;;;;;;;;0.00;0.00;;;;;23.28;69.27;100856.50;5102943;27;45335;-84
2021/09/15 11:47:54;;;;;;;;;0.00;0.00;;;;;22.92;69.40;100791.63;5084278;27;45347;-85
2021/09/15 11:50:22;;;;;;;;;0.00;0.00;;;;;22.72;68.02;100771.25;5103252;27;45263;-84
2021/09/15 11:52:53;;;;;;;;;0.00;0.00;;;;;23.35;68.42;100854.41;5105324;27;45311;-84
2021/09/15 11:55:48;;;;;;;;;0.00;0.00;;;;;23.32;68.38;100854.56;5084418;27;45449;-84
2021/09/15 11:58:19;;;;;;;;;0.00;0.00;;;;;23.24;68.28;100850.44;5075770;27;45288;-84
2021/09/15 12:05:13;;;;;;;;;1.75;1.00;;;;;22.78;68.61;100819.63;5008327;28;45337;-84
2021/09/15 12:08:10;;;;;;;;;;;;;;;;;;;;;
2021/09/15 12:21:24;;;;;;;;;0.00;0.00;;;;;22.48;70.91;100867.63;5024632;28;45514;-85
2021/09/15 12:31:21;;;;;;;;;0.50;0.50;;;;;21.21;72.64;100715.16;5061993;28;45363;-84
2021/09/15 12:34:22;;;;;;;;;0.00;0.00;;;;;21.77;72.61;100815.56;4999822;28;46220;-82
2021/09/15 12:37:33;;;;;;;;;1.00;1.00;;;;;21.40;72.43;100788.59;5004630;28;45533;-82
2021/09/15 12:40:34;;;;;;;;;0.00;0.00;;;;;20.93;73.16;100755.84;5051674;28;46137;-85
2021/09/15 12:43:41;;;;;;;;;;;;;;;;;;;;;
2021/09/15 12:50:10;;;;;;;;;0.00;0.00;;;;;20.91;73.35;100793.88;5076809;27;45452;-83
2021/09/15 12:52:38;;;;;;;;;2.00;1.00;;;;;20.89;73.67;100805.34;5076195;27;46482;-82
2021/09/15 12:55:38;;;;;;;;;0.75;0.00;;;;;21.28;74.36;100893.16;5103757;27;45341;-83
2021/09/15 12:58:04;;;;;;;;;0.00;0.00;;;;;21.02;74.59;100861.34;5049597;27;45508;-82
2021/09/15 13:00:36;;;;;;;;;1.75;0.50;;;;;20.79;75.19;100858.59;5077310;27;45542;-82
2021/09/15 13:03:10;;;;;;;;;0.50;0.50;;;;;20.08;75.20;100770.88;5062036;27;45687;-83
2021/09/15 13:05:43;;;;;;;;;1.50;0.00;;;;;19.97;75.71;100749.19;5079622;27;45370;-83
2021/09/15 13:08:40;;;;;;;;;;;;;;;;;;;;;
2021/09/15 13:11:12;;;;;;;;;3.50;1.50;;;;;20.36;76.21;100853.72;5074411;27;63195;-82
2021/09/15 13:14:29;;;;;;;;;2.25;2.25;;;;;20.63;75.61;100906.66;5070587;27;46940;-83
2021/09/15 13:17:31;;;;;;;;;0.75;0.75;;;;;20.51;75.45;100916.72;5086690;27;45470;-85
2021/09/15 13:20:09;;;;;;;;;4.25;1.00;;;;;19.37;75.74;100750.91;5075356;27;45685;-84
2021/09/15 13:22:43;;;;;;;;;3.00;2.00;;;;;19.06;76.24;100725.31;5076204;27;45415;-85
2021/09/15 13:25:47;;;;;;;;;2.25;1.50;;;;;19.26;76.07;100749.47;5077914;27;45507;-83
2021/09/15 13:28:19;;;;;;;;;5.00;3.00;;;;;19.01;75.90;100721.09;5034915;28;45700;-81
2021/09/15 13:31:00;;;;;;;;;1.00;0.50;;;;;20.36;75.71;100930.38;5080574;27;45532;-81
2021/09/15 13:33:43;;;;;;;;;4.00;3.00;;;;;19.92;75.44;100852.34;5081055;28;45252;-81
2021/09/15 13:39:14;;;;;;;;;3.00;1.75;;;;;20.31;75.97;100950.81;5082267;27;45208;-81
2021/09/15 13:41:53;;;;;;;;;3.00;3.00;;;;;19.68;76.15;100861.81;5087392;27;45332;-81